Open Full Screen Window  High Contrast Mode
September 16, 2014 9:28 PM EDT
Weather Information
Wind Direction
  ---
Wind Speed
  00 kt (0 mph)
Wind Gust
  00 kt (0 mph)
Altimeter
30.07 in
Visibility
10 SM
Temperature
08° C
46° F
Dewpoint
08° C
46° F
Humidity
100%
1hr Rain Fall
00.00 in.
24hr Rain Fall
00.00 in.
Sky Condition
Clear
VFR

METAR KIKW 170128Z AUTO 00000KT 10SM CLR 08/08 A3007 RMK AO2 T00820079

*Background is not an actual portrayal of the airport.